sensor_id;sensor_type;location;lat;lon;timestamp;P1;durP1;ratioP1;P2;durP2;ratioP2
18732;SDS011;9495;51.210;2.934;2023-02-28T00:01:38;8.23;;;5.80;;
18732;SDS011;9495;51.210;2.934;2023-02-28T00:04:07;8.90;;;6.00;;
18732;SDS011;9495;51.210;2.934;2023-02-28T00:06:36;8.73;;;6.00;;
18732;SDS011;9495;51.210;2.934;2023-02-28T00:09:05;9.50;;;6.00;;
18732;SDS011;9495;51.210;2.934;2023-02-28T00:11:33;9.20;;;5.70;;
18732;SDS011;9495;51.210;2.934;2023-02-28T00:14:04;10.40;;;5.83;;
18732;SDS011;9495;51.210;2.934;2023-02-28T00:16:33;10.83;;;5.80;;
18732;SDS011;9495;51.210;2.934;2023-02-28T00:19:01;8.53;;;6.10;;
18732;SDS011;9495;51.210;2.934;2023-02-28T00:21:31;8.90;;;5.97;;
18732;SDS011;9495;51.210;2.934;2023-02-28T00:23:59;9.60;;;6.47;;
18732;SDS011;9495;51.210;2.934;2023-02-28T00:26:28;9.33;;;6.27;;
18732;SDS011;9495;51.210;2.934;2023-02-28T00:28:56;7.90;;;6.13;;
18732;SDS011;9495;51.210;2.934;2023-02-28T00:31:25;11.13;;;6.27;;
18732;SDS011;9495;51.210;2.934;2023-02-28T00:33:54;6.93;;;6.00;;
18732;SDS011;9495;51.210;2.934;2023-02-28T00:36:22;12.67;;;6.80;;
18732;SDS011;9495;51.210;2.934;2023-02-28T00:38:52;11.10;;;6.07;;
18732;SDS011;9495;51.210;2.934;2023-02-28T00:41:21;12.03;;;6.80;;
18732;SDS011;9495;51.210;2.934;2023-02-28T00:43:49;8.87;;;6.37;;
18732;SDS011;9495;51.210;2.934;2023-02-28T00:46:18;10.63;;;7.00;;
18732;SDS011;9495;51.210;2.934;2023-02-28T00:48:46;11.70;;;6.60;;
18732;SDS011;9495;51.210;2.934;2023-02-28T00:51:15;10.63;;;7.13;;
18732;SDS011;9495;51.210;2.934;2023-02-28T00:53:44;9.80;;;6.63;;
18732;SDS011;9495;51.210;2.934;2023-02-28T00:56:14;12.63;;;6.97;;
18732;SDS011;9495;51.210;2.934;2023-02-28T00:58:42;13.20;;;7.27;;
18732;SDS011;9495;51.210;2.934;2023-02-28T01:01:10;11.43;;;7.20;;
18732;SDS011;9495;51.210;2.934;2023-02-28T01:03:39;11.17;;;7.87;;
18732;SDS011;9495;51.210;2.934;2023-02-28T01:06:08;11.47;;;7.07;;
18732;SDS011;9495;51.210;2.934;2023-02-28T01:08:37;13.87;;;7.97;;
18732;SDS011;9495;51.210;2.934;2023-02-28T01:11:08;9.63;;;7.63;;
18732;SDS011;9495;51.210;2.934;2023-02-28T01:13:40;14.43;;;7.50;;
18732;SDS011;9495;51.210;2.934;2023-02-28T01:16:09;14.70;;;8.17;;
18732;SDS011;9495;51.210;2.934;2023-02-28T01:18:37;13.27;;;8.10;;
18732;SDS011;9495;51.210;2.934;2023-02-28T01:21:08;9.63;;;7.97;;
18732;SDS011;9495;51.210;2.934;2023-02-28T01:23:37;17.03;;;8.63;;
18732;SDS011;9495;51.210;2.934;2023-02-28T01:26:06;10.33;;;7.93;;
18732;SDS011;9495;51.210;2.934;2023-02-28T01:28:35;10.73;;;8.00;;
18732;SDS011;9495;51.210;2.934;2023-02-28T01:31:05;12.53;;;8.13;;
18732;SDS011;9495;51.210;2.934;2023-02-28T01:33:34;14.47;;;8.37;;
18732;SDS011;9495;51.210;2.934;2023-02-28T01:36:04;12.53;;;8.23;;
18732;SDS011;9495;51.210;2.934;2023-02-28T01:38:34;10.53;;;8.70;;
18732;SDS011;9495;51.210;2.934;2023-02-28T01:41:03;15.30;;;8.47;;
18732;SDS011;9495;51.210;2.934;2023-02-28T01:43:35;14.30;;;8.60;;
18732;SDS011;9495;51.210;2.934;2023-02-28T01:46:22;12.00;;;9.33;;
18732;SDS011;9495;51.210;2.934;2023-02-28T01:48:51;13.00;;;8.37;;
18732;SDS011;9495;51.210;2.934;2023-02-28T01:51:25;12.43;;;8.83;;
18732;SDS011;9495;51.210;2.934;2023-02-28T01:53:58;11.40;;;8.50;;
18732;SDS011;9495;51.210;2.934;2023-02-28T01:56:29;10.70;;;8.90;;
18732;SDS011;9495;51.210;2.934;2023-02-28T01:59:00;10.83;;;8.83;;
18732;SDS011;9495;51.210;2.934;2023-02-28T02:01:31;15.47;;;9.53;;
18732;SDS011;9495;51.210;2.934;2023-02-28T02:04:00;13.17;;;9.83;;
18732;SDS011;9495;51.210;2.934;2023-02-28T02:06:30;14.37;;;9.47;;
18732;SDS011;9495;51.210;2.934;2023-02-28T02:09:02;12.07;;;9.67;;
18732;SDS011;9495;51.210;2.934;2023-02-28T02:11:32;14.77;;;10.17;;
18732;SDS011;9495;51.210;2.934;2023-02-28T02:14:15;12.17;;;9.50;;
18732;SDS011;9495;51.210;2.934;2023-02-28T02:17:16;14.30;;;9.63;;
18732;SDS011;9495;51.210;2.934;2023-02-28T02:23:09;13.50;;;10.97;;
18732;SDS011;9495;51.210;2.934;2023-02-28T02:25:54;13.10;;;10.40;;
18732;SDS011;9495;51.210;2.934;2023-02-28T02:31:52;13.73;;;10.80;;
18732;SDS011;9495;51.210;2.934;2023-02-28T02:34:55;15.57;;;10.90;;
18732;SDS011;9495;51.210;2.934;2023-02-28T02:37:35;12.57;;;10.47;;
18732;SDS011;9495;51.210;2.934;2023-02-28T02:40:09;12.80;;;10.97;;
18732;SDS011;9495;51.210;2.934;2023-02-28T02:42:43;16.80;;;10.20;;
18732;SDS011;9495;51.210;2.934;2023-02-28T02:45:17;15.47;;;10.33;;
18732;SDS011;9495;51.210;2.934;2023-02-28T02:47:51;13.93;;;10.30;;
18732;SDS011;9495;51.210;2.934;2023-02-28T02:50:23;13.80;;;10.20;;
18732;SDS011;9495;51.210;2.934;2023-02-28T02:52:55;14.97;;;10.13;;
18732;SDS011;9495;51.210;2.934;2023-02-28T02:55:26;13.27;;;10.10;;
18732;SDS011;9495;51.210;2.934;2023-02-28T02:57:56;12.90;;;10.03;;
18732;SDS011;9495;51.210;2.934;2023-02-28T03:00:29;13.13;;;10.33;;
18732;SDS011;9495;51.210;2.934;2023-02-28T03:03:01;14.03;;;10.47;;
18732;SDS011;9495;51.210;2.934;2023-02-28T03:05:33;13.60;;;10.03;;
18732;SDS011;9495;51.210;2.934;2023-02-28T03:08:07;16.90;;;10.67;;
18732;SDS011;9495;51.210;2.934;2023-02-28T03:10:36;14.77;;;10.57;;
18732;SDS011;9495;51.210;2.934;2023-02-28T03:13:11;19.07;;;10.63;;
18732;SDS011;9495;51.210;2.934;2023-02-28T03:15:55;13.17;;;11.13;;
18732;SDS011;9495;51.210;2.934;2023-02-28T03:18:36;13.87;;;10.07;;
18732;SDS011;9495;51.210;2.934;2023-02-28T03:21:14;13.60;;;11.30;;
18732;SDS011;9495;51.210;2.934;2023-02-28T03:23:52;17.73;;;11.00;;
18732;SDS011;9495;51.210;2.934;2023-02-28T03:26:27;16.20;;;10.87;;
18732;SDS011;9495;51.210;2.934;2023-02-28T03:29:00;15.93;;;10.60;;
18732;SDS011;9495;51.210;2.934;2023-02-28T03:31:33;17.20;;;11.27;;
18732;SDS011;9495;51.210;2.934;2023-02-28T03:34:06;19.17;;;11.90;;
18732;SDS011;9495;51.210;2.934;2023-02-28T03:36:41;15.23;;;11.50;;
18732;SDS011;9495;51.210;2.934;2023-02-28T03:39:14;15.73;;;11.27;;
18732;SDS011;9495;51.210;2.934;2023-02-28T03:41:45;14.93;;;11.30;;
18732;SDS011;9495;51.210;2.934;2023-02-28T03:44:19;20.77;;;12.30;;
18732;SDS011;9495;51.210;2.934;2023-02-28T03:46:52;16.60;;;11.17;;
18732;SDS011;9495;51.210;2.934;2023-02-28T03:49:27;20.83;;;11.40;;
18732;SDS011;9495;51.210;2.934;2023-02-28T03:52:00;17.20;;;11.40;;
18732;SDS011;9495;51.210;2.934;2023-02-28T03:54:31;15.53;;;11.20;;
18732;SDS011;9495;51.210;2.934;2023-02-28T03:57:03;16.60;;;11.00;;
18732;SDS011;9495;51.210;2.934;2023-02-28T03:59:39;16.57;;;10.70;;
18732;SDS011;9495;51.210;2.934;2023-02-28T04:02:11;14.57;;;11.33;;
18732;SDS011;9495;51.210;2.934;2023-02-28T04:04:39;16.77;;;12.00;;
18732;SDS011;9495;51.210;2.934;2023-02-28T04:07:16;16.07;;;11.50;;
18732;SDS011;9495;51.210;2.934;2023-02-28T04:09:45;15.33;;;11.17;;
18732;SDS011;9495;51.210;2.934;2023-02-28T04:12:13;14.40;;;10.73;;
18732;SDS011;9495;51.210;2.934;2023-02-28T04:14:42;15.97;;;10.70;;
18732;SDS011;9495;51.210;2.934;2023-02-28T04:17:11;14.07;;;10.50;;
18732;SDS011;9495;51.210;2.934;2023-02-28T04:19:40;15.63;;;11.40;;
18732;SDS011;9495;51.210;2.934;2023-02-28T04:22:09;13.33;;;10.73;;
18732;SDS011;9495;51.210;2.934;2023-02-28T04:24:38;12.77;;;10.43;;
18732;SDS011;9495;51.210;2.934;2023-02-28T04:27:08;15.80;;;10.27;;
18732;SDS011;9495;51.210;2.934;2023-02-28T04:29:37;14.93;;;10.77;;
18732;SDS011;9495;51.210;2.934;2023-02-28T04:32:05;17.47;;;10.47;;
18732;SDS011;9495;51.210;2.934;2023-02-28T04:34:34;14.67;;;9.83;;
18732;SDS011;9495;51.210;2.934;2023-02-28T04:37:03;14.37;;;9.33;;
18732;SDS011;9495;51.210;2.934;2023-02-28T04:39:40;15.03;;;9.37;;
18732;SDS011;9495;51.210;2.934;2023-02-28T04:42:09;11.43;;;8.83;;
18732;SDS011;9495;51.210;2.934;2023-02-28T04:44:39;14.87;;;9.33;;
18732;SDS011;9495;51.210;2.934;2023-02-28T04:47:07;15.87;;;8.40;;
18732;SDS011;9495;51.210;2.934;2023-02-28T04:49:36;15.30;;;9.07;;
18732;SDS011;9495;51.210;2.934;2023-02-28T04:52:04;15.33;;;8.83;;
18732;SDS011;9495;51.210;2.934;2023-02-28T04:54:34;14.67;;;8.53;;
18732;SDS011;9495;51.210;2.934;2023-02-28T04:57:06;10.27;;;7.07;;
18732;SDS011;9495;51.210;2.934;2023-02-28T04:59:34;9.97;;;6.97;;
18732;SDS011;9495;51.210;2.934;2023-02-28T05:02:03;9.57;;;6.43;;
18732;SDS011;9495;51.210;2.934;2023-02-28T05:04:33;10.07;;;6.40;;
18732;SDS011;9495;51.210;2.934;2023-02-28T05:07:02;11.10;;;6.47;;
18732;SDS011;9495;51.210;2.934;2023-02-28T05:09:31;14.83;;;6.70;;
18732;SDS011;9495;51.210;2.934;2023-02-28T05:12:01;11.03;;;6.17;;
18732;SDS011;9495;51.210;2.934;2023-02-28T05:14:30;8.87;;;6.27;;
18732;SDS011;9495;51.210;2.934;2023-02-28T05:16:59;14.20;;;7.07;;
18732;SDS011;9495;51.210;2.934;2023-02-28T05:19:27;13.37;;;7.03;;
18732;SDS011;9495;51.210;2.934;2023-02-28T05:21:56;8.47;;;6.30;;
18732;SDS011;9495;51.210;2.934;2023-02-28T05:24:25;14.17;;;7.40;;
18732;SDS011;9495;51.210;2.934;2023-02-28T05:26:54;13.87;;;6.73;;
18732;SDS011;9495;51.210;2.934;2023-02-28T05:29:22;15.63;;;6.77;;
18732;SDS011;9495;51.210;2.934;2023-02-28T05:31:52;11.63;;;6.47;;
18732;SDS011;9495;51.210;2.934;2023-02-28T05:34:21;12.90;;;6.93;;
18732;SDS011;9495;51.210;2.934;2023-02-28T05:36:49;12.60;;;7.23;;
18732;SDS011;9495;51.210;2.934;2023-02-28T05:39:18;16.93;;;7.73;;
18732;SDS011;9495;51.210;2.934;2023-02-28T05:41:46;13.53;;;7.40;;
18732;SDS011;9495;51.210;2.934;2023-02-28T05:44:15;10.47;;;7.03;;
18732;SDS011;9495;51.210;2.934;2023-02-28T05:46:43;17.57;;;7.83;;
18732;SDS011;9495;51.210;2.934;2023-02-28T05:49:13;14.00;;;7.17;;
18732;SDS011;9495;51.210;2.934;2023-02-28T05:51:41;15.10;;;7.60;;
18732;SDS011;9495;51.210;2.934;2023-02-28T05:54:10;13.00;;;7.70;;
18732;SDS011;9495;51.210;2.934;2023-02-28T05:56:39;12.10;;;7.60;;
18732;SDS011;9495;51.210;2.934;2023-02-28T05:59:10;14.90;;;7.87;;
18732;SDS011;9495;51.210;2.934;2023-02-28T06:01:39;12.13;;;7.07;;
18732;SDS011;9495;51.210;2.934;2023-02-28T06:04:09;9.60;;;7.07;;
18732;SDS011;9495;51.210;2.934;2023-02-28T06:06:58;14.73;;;7.57;;
18732;SDS011;9495;51.210;2.934;2023-02-28T06:09:26;12.37;;;7.63;;
18732;SDS011;9495;51.210;2.934;2023-02-28T06:11:57;16.83;;;8.13;;
18732;SDS011;9495;51.210;2.934;2023-02-28T06:14:25;13.33;;;7.80;;
18732;SDS011;9495;51.210;2.934;2023-02-28T06:16:54;16.67;;;9.20;;
18732;SDS011;9495;51.210;2.934;2023-02-28T06:19:24;14.00;;;7.40;;
18732;SDS011;9495;51.210;2.934;2023-02-28T06:21:53;13.57;;;7.40;;
18732;SDS011;9495;51.210;2.934;2023-02-28T06:24:25;20.53;;;8.20;;
18732;SDS011;9495;51.210;2.934;2023-02-28T06:26:55;10.57;;;7.90;;
18732;SDS011;9495;51.210;2.934;2023-02-28T06:29:25;15.77;;;8.40;;
18732;SDS011;9495;51.210;2.934;2023-02-28T06:31:53;10.07;;;7.73;;
18732;SDS011;9495;51.210;2.934;2023-02-28T06:34:22;23.23;;;8.90;;
18732;SDS011;9495;51.210;2.934;2023-02-28T06:36:50;13.40;;;8.57;;
18732;SDS011;9495;51.210;2.934;2023-02-28T06:39:19;12.80;;;8.53;;
18732;SDS011;9495;51.210;2.934;2023-02-28T06:41:49;13.60;;;9.07;;
18732;SDS011;9495;51.210;2.934;2023-02-28T06:44:22;16.10;;;9.33;;
18732;SDS011;9495;51.210;2.934;2023-02-28T06:46:52;16.50;;;9.30;;
18732;SDS011;9495;51.210;2.934;2023-02-28T06:49:20;11.33;;;9.33;;
18732;SDS011;9495;51.210;2.934;2023-02-28T06:51:48;13.83;;;10.30;;
18732;SDS011;9495;51.210;2.934;2023-02-28T06:54:17;16.33;;;10.07;;
18732;SDS011;9495;51.210;2.934;2023-02-28T06:56:46;15.63;;;10.87;;
18732;SDS011;9495;51.210;2.934;2023-02-28T06:59:16;16.03;;;10.87;;
18732;SDS011;9495;51.210;2.934;2023-02-28T07:01:45;16.70;;;10.57;;
18732;SDS011;9495;51.210;2.934;2023-02-28T07:04:13;13.13;;;10.60;;
18732;SDS011;9495;51.210;2.934;2023-02-28T07:06:42;16.57;;;10.73;;
18732;SDS011;9495;51.210;2.934;2023-02-28T07:09:10;17.23;;;11.10;;
18732;SDS011;9495;51.210;2.934;2023-02-28T07:11:40;19.23;;;11.07;;
18732;SDS011;9495;51.210;2.934;2023-02-28T07:14:09;16.57;;;10.93;;
18732;SDS011;9495;51.210;2.934;2023-02-28T07:16:39;18.23;;;11.50;;
18732;SDS011;9495;51.210;2.934;2023-02-28T07:19:07;16.57;;;12.80;;
18732;SDS011;9495;51.210;2.934;2023-02-28T07:21:35;19.10;;;12.07;;
18732;SDS011;9495;51.210;2.934;2023-02-28T07:24:04;15.73;;;12.07;;
18732;SDS011;9495;51.210;2.934;2023-02-28T07:26:33;20.37;;;12.53;;
18732;SDS011;9495;51.210;2.934;2023-02-28T07:29:02;20.00;;;12.30;;
18732;SDS011;9495;51.210;2.934;2023-02-28T07:31:30;20.00;;;13.03;;
18732;SDS011;9495;51.210;2.934;2023-02-28T07:34:00;20.80;;;13.53;;
18732;SDS011;9495;51.210;2.934;2023-02-28T07:36:29;20.80;;;14.37;;
18732;SDS011;9495;51.210;2.934;2023-02-28T07:38:58;19.83;;;15.70;;
18732;SDS011;9495;51.210;2.934;2023-02-28T07:41:27;25.63;;;16.03;;
18732;SDS011;9495;51.210;2.934;2023-02-28T07:43:56;19.53;;;13.80;;
18732;SDS011;9495;51.210;2.934;2023-02-28T07:46:26;25.93;;;15.53;;
18732;SDS011;9495;51.210;2.934;2023-02-28T07:48:56;21.17;;;14.60;;
18732;SDS011;9495;51.210;2.934;2023-02-28T07:51:27;27.53;;;14.97;;
18732;SDS011;9495;51.210;2.934;2023-02-28T07:53:56;28.20;;;15.87;;
18732;SDS011;9495;51.210;2.934;2023-02-28T07:56:24;22.93;;;16.60;;
18732;SDS011;9495;51.210;2.934;2023-02-28T07:58:54;19.73;;;14.40;;
18732;SDS011;9495;51.210;2.934;2023-02-28T08:01:22;16.70;;;12.37;;
18732;SDS011;9495;51.210;2.934;2023-02-28T08:03:51;18.47;;;12.80;;
18732;SDS011;9495;51.210;2.934;2023-02-28T08:06:21;20.83;;;14.47;;
18732;SDS011;9495;51.210;2.934;2023-02-28T08:08:52;19.13;;;14.37;;
18732;SDS011;9495;51.210;2.934;2023-02-28T08:11:22;19.40;;;15.47;;
18732;SDS011;9495;51.210;2.934;2023-02-28T08:13:51;20.53;;;15.43;;
18732;SDS011;9495;51.210;2.934;2023-02-28T08:16:19;23.93;;;15.60;;
18732;SDS011;9495;51.210;2.934;2023-02-28T08:18:49;20.10;;;14.60;;
18732;SDS011;9495;51.210;2.934;2023-02-28T08:21:17;22.60;;;15.13;;
18732;SDS011;9495;51.210;2.934;2023-02-28T08:23:46;22.03;;;15.77;;
18732;SDS011;9495;51.210;2.934;2023-02-28T08:26:17;18.93;;;14.73;;
18732;SDS011;9495;51.210;2.934;2023-02-28T08:28:45;23.73;;;16.13;;
18732;SDS011;9495;51.210;2.934;2023-02-28T08:31:14;23.40;;;16.10;;
18732;SDS011;9495;51.210;2.934;2023-02-28T08:33:44;26.23;;;17.30;;
18732;SDS011;9495;51.210;2.934;2023-02-28T08:36:15;27.63;;;17.03;;
18732;SDS011;9495;51.210;2.934;2023-02-28T08:38:43;25.07;;;16.57;;
18732;SDS011;9495;51.210;2.934;2023-02-28T08:41:12;21.73;;;16.17;;
18732;SDS011;9495;51.210;2.934;2023-02-28T08:43:42;22.80;;;16.50;;
18732;SDS011;9495;51.210;2.934;2023-02-28T08:46:11;19.70;;;13.50;;
18732;SDS011;9495;51.210;2.934;2023-02-28T08:48:41;18.63;;;12.70;;
18732;SDS011;9495;51.210;2.934;2023-02-28T08:51:11;14.87;;;10.73;;
18732;SDS011;9495;51.210;2.934;2023-02-28T08:53:42;18.03;;;10.00;;
18732;SDS011;9495;51.210;2.934;2023-02-28T08:56:12;16.73;;;10.07;;
18732;SDS011;9495;51.210;2.934;2023-02-28T08:58:44;16.90;;;8.70;;
18732;SDS011;9495;51.210;2.934;2023-02-28T09:01:13;13.37;;;9.07;;
18732;SDS011;9495;51.210;2.934;2023-02-28T09:03:43;13.27;;;8.47;;
18732;SDS011;9495;51.210;2.934;2023-02-28T09:06:14;13.40;;;9.40;;
18732;SDS011;9495;51.210;2.934;2023-02-28T09:08:44;13.63;;;9.13;;
18732;SDS011;9495;51.210;2.934;2023-02-28T09:11:12;16.37;;;9.73;;
18732;SDS011;9495;51.210;2.934;2023-02-28T09:13:41;13.43;;;9.83;;
18732;SDS011;9495;51.210;2.934;2023-02-28T09:16:11;19.13;;;11.23;;
18732;SDS011;9495;51.210;2.934;2023-02-28T09:18:42;16.53;;;10.57;;
18732;SDS011;9495;51.210;2.934;2023-02-28T09:21:12;14.17;;;10.30;;
18732;SDS011;9495;51.210;2.934;2023-02-28T09:23:42;16.13;;;11.53;;
18732;SDS011;9495;51.210;2.934;2023-02-28T09:26:13;19.63;;;11.40;;
18732;SDS011;9495;51.210;2.934;2023-02-28T09:28:42;14.07;;;10.97;;
18732;SDS011;9495;51.210;2.934;2023-02-28T09:31:12;16.23;;;11.07;;
18732;SDS011;9495;51.210;2.934;2023-02-28T09:33:41;16.90;;;11.53;;
18732;SDS011;9495;51.210;2.934;2023-02-28T09:36:10;17.43;;;11.47;;
18732;SDS011;9495;51.210;2.934;2023-02-28T09:38:39;18.57;;;12.10;;
18732;SDS011;9495;51.210;2.934;2023-02-28T09:41:11;18.17;;;13.70;;
18732;SDS011;9495;51.210;2.934;2023-02-28T09:43:45;17.83;;;13.53;;
18732;SDS011;9495;51.210;2.934;2023-02-28T09:46:25;21.70;;;12.73;;
18732;SDS011;9495;51.210;2.934;2023-02-28T09:49:01;19.33;;;13.43;;
18732;SDS011;9495;51.210;2.934;2023-02-28T09:51:44;24.43;;;14.03;;
18732;SDS011;9495;51.210;2.934;2023-02-28T09:54:18;21.13;;;14.53;;
18732;SDS011;9495;51.210;2.934;2023-02-28T09:56:49;16.47;;;12.03;;
18732;SDS011;9495;51.210;2.934;2023-02-28T09:59:29;20.50;;;13.47;;
18732;SDS011;9495;51.210;2.934;2023-02-28T10:02:10;23.33;;;13.93;;
18732;SDS011;9495;51.210;2.934;2023-02-28T10:04:46;22.37;;;15.43;;
18732;SDS011;9495;51.210;2.934;2023-02-28T10:07:32;20.47;;;15.00;;
18732;SDS011;9495;51.210;2.934;2023-02-28T10:10:14;21.47;;;14.33;;
18732;SDS011;9495;51.210;2.934;2023-02-28T10:12:50;14.63;;;11.43;;
18732;SDS011;9495;51.210;2.934;2023-02-28T10:15:23;19.97;;;11.63;;
18732;SDS011;9495;51.210;2.934;2023-02-28T10:17:54;17.40;;;11.73;;
18732;SDS011;9495;51.210;2.934;2023-02-28T10:20:35;15.47;;;9.63;;
18732;SDS011;9495;51.210;2.934;2023-02-28T10:23:08;11.33;;;8.30;;
18732;SDS011;9495;51.210;2.934;2023-02-28T10:25:41;15.17;;;8.80;;
18732;SDS011;9495;51.210;2.934;2023-02-28T10:28:15;10.03;;;7.13;;
18732;SDS011;9495;51.210;2.934;2023-02-28T10:30:46;8.90;;;7.07;;
18732;SDS011;9495;51.210;2.934;2023-02-28T10:33:17;12.17;;;7.87;;
18732;SDS011;9495;51.210;2.934;2023-02-28T10:35:49;11.97;;;6.50;;
18732;SDS011;9495;51.210;2.934;2023-02-28T10:38:23;10.90;;;6.60;;
18732;SDS011;9495;51.210;2.934;2023-02-28T10:41:03;12.47;;;6.87;;
18732;SDS011;9495;51.210;2.934;2023-02-28T10:43:32;13.87;;;7.40;;
18732;SDS011;9495;51.210;2.934;2023-02-28T10:46:04;13.63;;;9.10;;
18732;SDS011;9495;51.210;2.934;2023-02-28T10:48:42;19.80;;;9.80;;
18732;SDS011;9495;51.210;2.934;2023-02-28T10:51:14;19.00;;;11.30;;
18732;SDS011;9495;51.210;2.934;2023-02-28T10:53:50;16.17;;;9.10;;
18732;SDS011;9495;51.210;2.934;2023-02-28T10:56:28;13.13;;;8.40;;
18732;SDS011;9495;51.210;2.934;2023-02-28T10:58:58;17.37;;;10.80;;
18732;SDS011;9495;51.210;2.934;2023-02-28T11:01:40;21.17;;;13.63;;
18732;SDS011;9495;51.210;2.934;2023-02-28T11:04:17;29.27;;;15.00;;
18732;SDS011;9495;51.210;2.934;2023-02-28T11:06:48;18.87;;;11.77;;
18732;SDS011;9495;51.210;2.934;2023-02-28T11:09:27;25.13;;;12.43;;
18732;SDS011;9495;51.210;2.934;2023-02-28T11:11:58;15.37;;;9.77;;
18732;SDS011;9495;51.210;2.934;2023-02-28T11:14:28;21.90;;;14.10;;
18732;SDS011;9495;51.210;2.934;2023-02-28T11:17:00;25.97;;;16.50;;
18732;SDS011;9495;51.210;2.934;2023-02-28T11:19:44;24.80;;;19.33;;
18732;SDS011;9495;51.210;2.934;2023-02-28T11:22:16;16.83;;;9.53;;
18732;SDS011;9495;51.210;2.934;2023-02-28T11:24:48;18.57;;;12.07;;
18732;SDS011;9495;51.210;2.934;2023-02-28T11:27:27;19.00;;;11.83;;
18732;SDS011;9495;51.210;2.934;2023-02-28T11:30:26;15.30;;;11.70;;
18732;SDS011;9495;51.210;2.934;2023-02-28T11:33:13;10.60;;;8.30;;
18732;SDS011;9495;51.210;2.934;2023-02-28T11:35:49;15.03;;;7.23;;
18732;SDS011;9495;51.210;2.934;2023-02-28T11:38:18;9.27;;;6.87;;
18732;SDS011;9495;51.210;2.934;2023-02-28T11:40:48;13.57;;;6.80;;
18732;SDS011;9495;51.210;2.934;2023-02-28T11:43:27;11.27;;;6.20;;
18732;SDS011;9495;51.210;2.934;2023-02-28T11:46:06;10.40;;;5.40;;
18732;SDS011;9495;51.210;2.934;2023-02-28T11:48:50;7.10;;;5.63;;
18732;SDS011;9495;51.210;2.934;2023-02-28T11:51:27;7.50;;;5.77;;
18732;SDS011;9495;51.210;2.934;2023-02-28T11:54:15;9.87;;;5.20;;
18732;SDS011;9495;51.210;2.934;2023-02-28T11:56:55;10.07;;;5.80;;
18732;SDS011;9495;51.210;2.934;2023-02-28T11:59:35;10.93;;;6.03;;
18732;SDS011;9495;51.210;2.934;2023-02-28T12:02:20;13.17;;;6.10;;
18732;SDS011;9495;51.210;2.934;2023-02-28T12:04:54;9.63;;;5.67;;
18732;SDS011;9495;51.210;2.934;2023-02-28T12:07:42;8.97;;;5.70;;
18732;SDS011;9495;51.210;2.934;2023-02-28T12:10:21;14.80;;;6.53;;
18732;SDS011;9495;51.210;2.934;2023-02-28T12:12:55;10.93;;;6.07;;
18732;SDS011;9495;51.210;2.934;2023-02-28T12:15:49;10.57;;;6.27;;
18732;SDS011;9495;51.210;2.934;2023-02-28T12:19:00;11.17;;;5.47;;
18732;SDS011;9495;51.210;2.934;2023-02-28T12:21:41;8.87;;;5.53;;
18732;SDS011;9495;51.210;2.934;2023-02-28T12:24:26;9.00;;;5.40;;
18732;SDS011;9495;51.210;2.934;2023-02-28T12:27:02;5.93;;;4.60;;
18732;SDS011;9495;51.210;2.934;2023-02-28T12:29:37;8.80;;;5.33;;
18732;SDS011;9495;51.210;2.934;2023-02-28T12:32:14;6.43;;;5.00;;
18732;SDS011;9495;51.210;2.934;2023-02-28T12:34:49;6.97;;;4.30;;
18732;SDS011;9495;51.210;2.934;2023-02-28T12:37:24;7.53;;;5.37;;
18732;SDS011;9495;51.210;2.934;2023-02-28T12:40:00;6.23;;;4.90;;
18732;SDS011;9495;51.210;2.934;2023-02-28T12:42:33;6.47;;;4.73;;
18732;SDS011;9495;51.210;2.934;2023-02-28T12:45:09;8.63;;;5.00;;
18732;SDS011;9495;51.210;2.934;2023-02-28T12:47:41;8.23;;;4.93;;
18732;SDS011;9495;51.210;2.934;2023-02-28T12:50:12;8.83;;;5.20;;
18732;SDS011;9495;51.210;2.934;2023-02-28T12:52:44;13.93;;;5.23;;
18732;SDS011;9495;51.210;2.934;2023-02-28T12:55:21;6.93;;;4.47;;
18732;SDS011;9495;51.210;2.934;2023-02-28T12:57:58;9.73;;;4.97;;
18732;SDS011;9495;51.210;2.934;2023-02-28T13:00:33;6.50;;;4.53;;
18732;SDS011;9495;51.210;2.934;2023-02-28T13:06:22;9.07;;;4.37;;
18732;SDS011;9495;51.210;2.934;2023-02-28T13:09:10;5.67;;;3.93;;
18732;SDS011;9495;51.210;2.934;2023-02-28T13:11:42;7.60;;;3.70;;
18732;SDS011;9495;51.210;2.934;2023-02-28T13:14:19;6.27;;;4.10;;
18732;SDS011;9495;51.210;2.934;2023-02-28T13:16:55;5.20;;;4.00;;
18732;SDS011;9495;51.210;2.934;2023-02-28T13:19:26;5.90;;;4.10;;
18732;SDS011;9495;51.210;2.934;2023-02-28T13:21:57;5.50;;;3.93;;
18732;SDS011;9495;51.210;2.934;2023-02-28T13:33:27;4.77;;;4.27;;
18732;SDS011;9495;51.210;2.934;2023-02-28T13:38:55;4.93;;;3.87;;
18732;SDS011;9495;51.210;2.934;2023-02-28T13:41:44;5.27;;;3.77;;
18732;SDS011;9495;51.210;2.934;2023-02-28T13:44:15;5.93;;;3.43;;
18732;SDS011;9495;51.210;2.934;2023-02-28T13:49:52;6.07;;;4.30;;
18732;SDS011;9495;51.210;2.934;2023-02-28T13:52:22;6.33;;;3.87;;
18732;SDS011;9495;51.210;2.934;2023-02-28T13:55:21;4.43;;;3.53;;
18732;SDS011;9495;51.210;2.934;2023-02-28T13:58:01;7.73;;;4.20;;
18732;SDS011;9495;51.210;2.934;2023-02-28T14:00:51;3.50;;;3.20;;
18732;SDS011;9495;51.210;2.934;2023-02-28T14:03:37;6.67;;;3.93;;
18732;SDS011;9495;51.210;2.934;2023-02-28T14:06:17;6.37;;;4.00;;
18732;SDS011;9495;51.210;2.934;2023-02-28T14:08:54;3.97;;;3.67;;
18732;SDS011;9495;51.210;2.934;2023-02-28T14:11:29;3.80;;;3.40;;
18732;SDS011;9495;51.210;2.934;2023-02-28T14:14:01;6.23;;;3.67;;
18732;SDS011;9495;51.210;2.934;2023-02-28T14:16:35;4.83;;;3.80;;
18732;SDS011;9495;51.210;2.934;2023-02-28T14:19:10;7.10;;;3.23;;
18732;SDS011;9495;51.210;2.934;2023-02-28T14:21:45;4.60;;;3.83;;
18732;SDS011;9495;51.210;2.934;2023-02-28T14:24:28;5.50;;;4.00;;
18732;SDS011;9495;51.210;2.934;2023-02-28T14:27:26;8.03;;;4.70;;
18732;SDS011;9495;51.210;2.934;2023-02-28T14:33:13;6.13;;;4.00;;
18732;SDS011;9495;51.210;2.934;2023-02-28T14:36:00;7.37;;;4.07;;
18732;SDS011;9495;51.210;2.934;2023-02-28T14:38:38;7.30;;;4.07;;
18732;SDS011;9495;51.210;2.934;2023-02-28T14:41:15;6.20;;;4.37;;
18732;SDS011;9495;51.210;2.934;2023-02-28T14:43:48;4.97;;;4.00;;
18732;SDS011;9495;51.210;2.934;2023-02-28T14:46:19;6.03;;;4.03;;
18732;SDS011;9495;51.210;2.934;2023-02-28T14:48:49;5.10;;;4.00;;
18732;SDS011;9495;51.210;2.934;2023-02-28T14:51:19;5.67;;;4.13;;
18732;SDS011;9495;51.210;2.934;2023-02-28T14:53:50;5.77;;;4.73;;
18732;SDS011;9495;51.210;2.934;2023-02-28T14:56:33;5.60;;;4.10;;
18732;SDS011;9495;51.210;2.934;2023-02-28T14:59:04;5.90;;;4.60;;
18732;SDS011;9495;51.210;2.934;2023-02-28T15:01:46;5.57;;;3.97;;
18732;SDS011;9495;51.210;2.934;2023-02-28T15:04:21;5.37;;;4.63;;
18732;SDS011;9495;51.210;2.934;2023-02-28T15:07:09;7.30;;;3.97;;
18732;SDS011;9495;51.210;2.934;2023-02-28T15:09:38;4.93;;;4.20;;
18732;SDS011;9495;51.210;2.934;2023-02-28T15:12:07;8.23;;;4.70;;
18732;SDS011;9495;51.210;2.934;2023-02-28T15:14:41;5.90;;;4.50;;
18732;SDS011;9495;51.210;2.934;2023-02-28T15:17:15;7.73;;;4.50;;
18732;SDS011;9495;51.210;2.934;2023-02-28T15:19:52;8.10;;;4.37;;
18732;SDS011;9495;51.210;2.934;2023-02-28T15:22:23;4.73;;;4.23;;
18732;SDS011;9495;51.210;2.934;2023-02-28T15:24:56;5.00;;;4.43;;
18732;SDS011;9495;51.210;2.934;2023-02-28T15:27:26;8.00;;;4.00;;
18732;SDS011;9495;51.210;2.934;2023-02-28T15:29:59;7.10;;;3.60;;
18732;SDS011;9495;51.210;2.934;2023-02-28T15:32:30;4.50;;;3.67;;
18732;SDS011;9495;51.210;2.934;2023-02-28T15:37:46;4.67;;;3.20;;
18732;SDS011;9495;51.210;2.934;2023-02-28T15:40:16;6.70;;;3.60;;
18732;SDS011;9495;51.210;2.934;2023-02-28T15:43:00;3.13;;;2.80;;
18732;SDS011;9495;51.210;2.934;2023-02-28T15:45:33;4.53;;;3.17;;
18732;SDS011;9495;51.210;2.934;2023-02-28T15:48:15;3.70;;;3.10;;
18732;SDS011;9495;51.210;2.934;2023-02-28T15:50:48;6.97;;;2.93;;